createdAt,value
2022-08-16T03:49:53.704Z,17.07
2022-08-16T03:51:07.274Z,16.92
2022-08-16T03:51:54.300Z,17.03
2022-08-16T03:52:50.926Z,17
2022-08-16T03:54:14.816Z,16.95
2022-08-16T03:55:02.051Z,16.94
2022-08-16T03:55:55.089Z,16.95
2022-08-16T03:57:03.015Z,16.87
2022-08-16T03:57:57.030Z,16.9
2022-08-16T03:58:54.920Z,16.87
2022-08-16T03:59:53.482Z,16.91
2022-08-16T04:01:01.395Z,16.84
2022-08-16T04:01:58.143Z,16.87
2022-08-16T04:02:51.224Z,16.84
2022-08-16T04:03:52.811Z,16.81
2022-08-16T04:04:49.964Z,16.84
2022-08-16T04:05:54.133Z,16.81
2022-08-16T04:06:53.536Z,16.94
2022-08-16T04:07:52.880Z,16.85
2022-08-16T04:08:49.938Z,16.91
2022-08-16T04:09:50.183Z,16.85
2022-08-16T04:10:57.959Z,16.87
2022-08-16T04:11:54.656Z,16.81
2022-08-16T04:13:06.520Z,16.84
2022-08-16T04:14:48.814Z,16.85
2022-08-16T04:15:38.530Z,16.8
2022-08-16T04:16:38.929Z,16.81
2022-08-16T04:17:39.970Z,16.8
2022-08-16T04:18:39.323Z,16.77
2022-08-16T04:19:38.158Z,16.74
2022-08-16T04:20:42.685Z,16.7
2022-08-16T04:21:49.782Z,16.73
2022-08-16T04:22:41.847Z,16.69
2022-08-16T04:23:39.394Z,16.59
2022-08-16T04:24:39.781Z,16.59
2022-08-16T04:25:38.059Z,16.58
2022-08-16T04:26:42.597Z,16.62
2022-08-16T04:27:39.336Z,16.55
2022-08-16T04:29:43.311Z,16.52
2022-08-16T04:30:13.437Z,16.48
2022-08-16T04:31:12.951Z,16.52
2022-08-16T04:32:07.970Z,16.47
2022-08-16T04:33:09.250Z,16.49
2022-08-16T04:34:11.424Z,16.49
2022-08-16T04:35:18.703Z,16.55
2022-08-16T04:36:11.181Z,16.48
2022-08-16T04:37:09.941Z,16.52
2022-08-16T04:38:25.547Z,16.57
2022-08-16T04:39:09.963Z,16.49
2022-08-16T04:40:10.151Z,16.66
2022-08-16T04:41:08.436Z,16.72
2022-08-16T04:42:16.043Z,16.74
2022-08-16T04:43:07.905Z,16.8
2022-08-16T04:45:01.902Z,16.85
2022-08-16T04:45:12.338Z,16.84
2022-08-16T04:47:24.604Z,16.95
2022-08-16T04:47:42.139Z,16.97
2022-08-16T04:48:43.117Z,17.05
2022-08-16T04:49:50.111Z,17.09
2022-08-16T04:50:47.862Z,17.09
2022-08-16T04:51:41.234Z,17.03
2022-08-16T04:52:41.092Z,17.06
2022-08-16T04:53:46.146Z,17.07
2022-08-16T04:54:48.251Z,17.1
2022-08-16T04:55:43.656Z,17.18
2022-08-16T04:56:48.702Z,17.12
2022-08-16T04:57:43.769Z,17.2
2022-08-16T04:58:49.283Z,17.21
2022-08-16T04:59:44.102Z,17.27
2022-08-16T05:00:42.655Z,17.28
2022-08-16T05:02:03.613Z,17.35
2022-08-16T05:03:09.752Z,17.31
2022-08-16T05:04:06.054Z,17.39
2022-08-16T05:05:00.989Z,17.35
2022-08-16T05:06:11.734Z,17.36
2022-08-16T05:07:00.084Z,17.42
2022-08-16T05:08:32.646Z,17.35
2022-08-16T05:09:01.558Z,17.42
2022-08-16T05:10:00.222Z,17.43
2022-08-16T05:11:08.419Z,17.49
2022-08-16T05:12:02.835Z,17.42
2022-08-16T05:13:01.335Z,17.54
2022-08-16T05:14:11.519Z,17.54
2022-08-16T05:15:11.208Z,17.5
2022-08-16T05:16:16.501Z,17.46
2022-08-16T05:17:09.319Z,17.6
2022-08-16T05:18:19.888Z,17.58
2022-08-16T05:19:16.307Z,17.6
2022-08-16T05:21:09.845Z,17.57
2022-08-16T05:21:25.152Z,17.54
2022-08-16T05:22:22.970Z,17.73
2022-08-16T05:23:23.473Z,17.66
2022-08-16T05:24:29.514Z,17.68
2022-08-16T05:25:21.092Z,17.73
2022-08-16T05:26:24.429Z,17.65
2022-08-16T05:27:21.410Z,17.73
2022-08-16T05:28:22.021Z,17.68
2022-08-16T05:29:23.065Z,17.77
2022-08-16T05:30:45.596Z,17.73
2022-08-16T05:31:55.604Z,17.79
2022-08-16T05:32:52.441Z,17.77
2022-08-16T05:33:55.908Z,17.86
2022-08-16T05:34:41.316Z,17.83
2022-08-16T05:35:44.973Z,17.8
2022-08-16T05:36:46.584Z,17.84
2022-08-16T05:37:44.251Z,17.86
2022-08-16T05:38:44.442Z,17.87
2022-08-16T05:39:47.096Z,17.88
2022-08-16T05:40:41.975Z,17.87
2022-08-16T05:41:51.896Z,17.83
2022-08-16T05:42:45.981Z,17.96
2022-08-16T05:43:51.555Z,17.98
2022-08-16T05:44:41.894Z,18.01
2022-08-16T05:45:44.967Z,17.94
2022-08-16T05:46:48.617Z,17.95
2022-08-16T05:47:48.666Z,18.06
2022-08-16T05:48:42.545Z,18.06
2022-08-16T05:49:43.773Z,18.06
2022-08-16T05:50:44.132Z,18.06
2022-08-16T05:51:45.697Z,18.02
2022-08-16T05:52:47.535Z,18.02
2022-08-16T05:53:43.769Z,18.17
2022-08-16T05:54:58.621Z,18.19
2022-08-16T05:55:45.737Z,18.2
2022-08-16T05:56:42.886Z,18.2
2022-08-16T05:57:44.063Z,18.17
2022-08-16T05:58:41.579Z,18.17
2022-08-16T05:59:44.186Z,18.23
2022-08-16T06:00:41.656Z,18.26
2022-08-16T06:01:43.539Z,18.21
2022-08-16T06:02:41.221Z,18.2
2022-08-16T06:03:41.151Z,18.36
2022-08-16T06:04:47.211Z,18.27
2022-08-16T06:05:46.166Z,18.36
2022-08-16T06:06:58.286Z,18.32
2022-08-16T06:07:42.867Z,18.32
2022-08-16T06:08:51.163Z,18.35
2022-08-16T06:09:49.421Z,18.36
2022-08-16T06:11:09.998Z,18.39
2022-08-16T06:11:45.540Z,18.47
2022-08-16T06:12:41.359Z,18.51
2022-08-16T06:13:44.343Z,18.5
2022-08-16T06:14:44.495Z,18.53
2022-08-16T06:15:43.735Z,18.5
2022-08-16T06:16:41.494Z,18.53
2022-08-16T06:17:47.905Z,18.57
2022-08-16T06:18:42.226Z,18.53
2022-08-16T06:19:47.126Z,18.57
2022-08-16T06:21:02.450Z,18.53
2022-08-16T06:21:41.491Z,18.51
2022-08-16T06:22:57.338Z,18.49
2022-08-16T06:23:41.338Z,18.66
2022-08-16T06:25:00.019Z,18.65
2022-08-16T06:25:44.136Z,18.68
2022-08-16T06:26:59.702Z,18.63
2022-08-16T06:27:59.781Z,18.65
2022-08-16T06:28:41.735Z,18.65
2022-08-16T06:29:41.024Z,18.65
2022-08-16T06:30:48.956Z,18.72
2022-08-16T06:31:53.325Z,18.81
2022-08-16T06:32:53.662Z,18.75
2022-08-16T06:33:47.433Z,18.76
2022-08-16T06:35:06.823Z,18.79
2022-08-16T06:35:45.960Z,18.78
2022-08-16T06:36:40.995Z,18.82
2022-08-16T06:37:44.738Z,18.86
2022-08-16T06:38:58.736Z,18.86
2022-08-16T06:39:54.468Z,18.96
2022-08-16T06:40:51.273Z,18.91
2022-08-16T06:41:44.377Z,19
2022-08-16T06:42:57.733Z,19.02
2022-08-16T06:43:42.019Z,19.05
2022-08-16T06:44:42.212Z,19.07
2022-08-16T06:45:45.761Z,19.12
2022-08-16T06:46:41.391Z,19.07
2022-08-16T06:47:59.518Z,19.16
2022-08-16T06:48:53.536Z,19.2
2022-08-16T06:49:41.142Z,19.27
2022-08-16T06:50:44.702Z,19.43
2022-08-16T06:51:54.717Z,19.75
2022-08-16T06:53:19.620Z,20.79
2022-08-16T06:54:18.713Z,21.99
2022-08-16T06:55:18.349Z,23.18
2022-08-16T06:56:25.970Z,24.18
2022-08-16T06:57:21.120Z,24.59
2022-08-16T06:58:31.273Z,25.19
2022-08-16T06:59:13.732Z,25.64
2022-08-16T07:00:29.212Z,26.39
2022-08-16T07:01:44.635Z,26.84
2022-08-16T07:02:37.641Z,27.45
2022-08-16T07:03:54.769Z,28.01
2022-08-16T07:04:37.059Z,28.36
2022-08-16T07:05:19.740Z,28.67
2022-08-16T07:06:17.017Z,28.88
2022-08-16T07:07:16.951Z,29.29
2022-08-16T07:08:16.292Z,29.65
2022-08-16T07:09:15.822Z,29.85
2022-08-16T07:10:13.736Z,30.11
2022-08-16T07:11:13.824Z,30.18
2022-08-16T07:12:12.732Z,30.56
2022-08-16T07:14:22.859Z,30.86
2022-08-16T07:14:37.680Z,31.06
2022-08-16T07:15:36.189Z,31.33
2022-08-16T07:16:36.666Z,31.71
2022-08-16T07:17:37.523Z,31.55
2022-08-16T07:18:36.742Z,31.52
2022-08-16T07:20:49.726Z,31.88
2022-08-16T07:21:07.058Z,31.98
2022-08-16T07:22:39.783Z,32.23
2022-08-16T07:23:17.934Z,32.34
2022-08-16T07:24:10.944Z,32.52
2022-08-16T07:25:07.461Z,32.56
2022-08-16T07:26:07.294Z,32.75
2022-08-16T07:27:12.479Z,33.01
2022-08-16T07:28:20.352Z,33.32
2022-08-16T07:29:10.103Z,33.53
2022-08-16T07:30:48.333Z,33.55
2022-08-16T07:31:13.110Z,33.63
2022-08-16T07:32:08.475Z,33.61
2022-08-16T07:33:09.410Z,33.62
2022-08-16T07:34:12.388Z,33.75
2022-08-16T07:35:06.790Z,33.83
2022-08-16T07:36:09.731Z,33.78
2022-08-16T07:37:06.827Z,33.93
2022-08-16T07:38:08.736Z,33.78
2022-08-16T07:39:06.555Z,33.77
2022-08-16T07:40:15.841Z,33.93
2022-08-16T07:41:15.790Z,34.17
2022-08-16T07:42:25.978Z,34.48
2022-08-16T07:43:07.357Z,34.48
2022-08-16T07:44:21.127Z,34.48
2022-08-16T07:45:12.752Z,34.49
2022-08-16T07:46:06.952Z,34.15
2022-08-16T07:47:06.589Z,33.81
2022-08-16T07:48:17.324Z,33.41
2022-08-16T07:49:13.663Z,33.18
2022-08-16T07:51:00.287Z,32.45
2022-08-16T07:51:18.349Z,32.3
2022-08-16T07:52:25.084Z,31.82
2022-08-16T07:53:19.201Z,31.44
2022-08-16T07:54:39.894Z,30.85
2022-08-16T07:55:17.844Z,30.51
2022-08-16T07:56:21.458Z,30.07
2022-08-16T07:57:21.341Z,29.63
2022-08-16T07:58:36.498Z,29.13
2022-08-16T07:59:18.934Z,28.9
2022-08-16T08:00:28.779Z,28.49
2022-08-16T08:01:19.367Z,28.31
2022-08-16T08:02:29.519Z,27.79
2022-08-16T08:03:19.571Z,27.49
2022-08-16T08:04:18.207Z,27.26
2022-08-16T08:05:35.585Z,26.94
2022-08-16T08:06:17.420Z,26.75
2022-08-16T08:07:23.102Z,26.49
2022-08-16T08:09:01.796Z,26.35
2022-08-16T08:09:18.631Z,26.37
2022-08-16T08:10:34.210Z,26.31
2022-08-16T08:11:23.995Z,26.34
2022-08-16T08:12:39.792Z,26.27
2022-08-16T08:13:17.803Z,26.22
2022-08-16T08:14:34.549Z,26.01
2022-08-16T08:15:29.471Z,25.99
2022-08-16T08:16:32.504Z,25.88
2022-08-16T08:17:20.578Z,25.93
2022-08-16T08:18:35.389Z,25.91
2022-08-16T08:19:17.224Z,25.88
2022-08-16T08:20:30.747Z,25.93
2022-08-16T08:21:18.288Z,26.01
2022-08-16T08:22:27.121Z,25.76
2022-08-16T08:23:18.635Z,25.51
2022-08-16T08:24:20.140Z,25.27
2022-08-16T08:25:21.251Z,25.37
2022-08-16T08:26:22.436Z,25.22
2022-08-16T08:27:27.757Z,25.34
2022-08-16T08:28:22.162Z,25.48
2022-08-16T08:29:37.023Z,25.32
2022-08-16T08:31:07.993Z,25.33
2022-08-16T08:31:56.367Z,25.3
2022-08-16T08:33:06.514Z,25.33
2022-08-16T08:34:07.145Z,25.29
2022-08-16T08:35:08.730Z,25.34
2022-08-16T08:36:07.275Z,25.45
2022-08-16T08:37:03.037Z,25.52
2022-08-16T08:38:03.935Z,25.57
2022-08-16T08:39:04.141Z,25.42
2022-08-16T08:40:03.160Z,25.48
2022-08-16T08:41:04.624Z,25.57
2022-08-16T08:42:05.709Z,25.74
2022-08-16T08:43:20.393Z,25.75
2022-08-16T08:44:31.149Z,25.78
2022-08-16T08:45:03.186Z,25.76
2022-08-16T08:46:03.046Z,25.89
2022-08-16T08:47:12.245Z,26.07
2022-08-16T08:48:03.482Z,26.11
2022-08-16T08:49:05.110Z,26.22
2022-08-16T08:50:02.919Z,26.24
2022-08-16T08:51:04.994Z,26.22
2022-08-16T08:52:10.569Z,26.12
2022-08-16T08:53:04.181Z,26.22
2022-08-16T08:54:03.225Z,26.19
2022-08-16T08:55:02.797Z,26.12
2022-08-16T08:56:24.941Z,26.26
2022-08-16T08:57:03.526Z,26.23
2022-08-16T08:58:03.203Z,26.3
2022-08-16T08:59:19.962Z,26.45
2022-08-16T09:00:03.721Z,26.47
2022-08-16T09:01:06.836Z,26.74
2022-08-16T09:02:05.597Z,26.74
2022-08-16T09:03:07.847Z,26.89
2022-08-16T09:04:03.400Z,26.9
2022-08-16T09:05:15.076Z,26.99
2022-08-16T09:06:03.086Z,27
2022-08-16T09:07:03.467Z,27.18
2022-08-16T09:08:11.534Z,27.19
2022-08-16T09:09:04.212Z,27.27
2022-08-16T09:10:22.778Z,27.13
2022-08-16T09:11:09.590Z,27.19
2022-08-16T09:12:38.189Z,27.24
2022-08-16T09:13:02.977Z,27.13
2022-08-16T09:14:03.289Z,27.16
2022-08-16T09:15:03.144Z,27.01
2022-08-16T09:16:03.080Z,26.87
2022-08-16T09:17:48.828Z,26.67
2022-08-16T09:18:38.067Z,26.67
2022-08-16T09:20:09.707Z,26.61
2022-08-16T09:21:09.425Z,26.72
2022-08-16T09:22:06.856Z,26.74
2022-08-16T09:23:08.268Z,26.78
2022-08-16T09:24:12.266Z,26.64
2022-08-16T09:25:23.112Z,26.63
2022-08-16T09:26:54.940Z,26.68
2022-08-16T09:27:16.777Z,26.57
2022-08-16T09:29:44.654Z,26.32
2022-08-16T09:30:50.092Z,26.42
2022-08-16T09:31:47.314Z,26.5
2022-08-16T09:32:49.130Z,26.49
2022-08-16T09:33:42.232Z,26.59
2022-08-16T09:34:41.058Z,26.78
2022-08-16T09:35:45.271Z,26.68
2022-08-16T09:36:47.346Z,26.79
2022-08-16T09:37:41.273Z,26.9
2022-08-16T09:38:43.299Z,26.87
2022-08-16T09:39:52.469Z,27.01
2022-08-16T09:40:48.571Z,27.08
2022-08-16T09:41:38.707Z,27.12
2022-08-16T09:43:03.594Z,27.04
2022-08-16T09:45:09.008Z,26.97
2022-08-16T09:45:31.289Z,26.74
2022-08-16T09:46:57.735Z,26.87
2022-08-16T09:47:28.807Z,26.78
2022-08-16T09:48:53.862Z,26.82
2022-08-16T09:49:40.743Z,26.87
2022-08-16T09:50:40.521Z,26.87
2022-08-16T09:51:36.690Z,27.05
2022-08-16T09:52:30.738Z,27.15
2022-08-16T09:53:27.982Z,27.13
2022-08-16T09:54:35.235Z,27.23
2022-08-16T09:55:33.398Z,27.26
2022-08-16T09:56:33.662Z,27.15
2022-08-16T09:57:36.716Z,27.09
2022-08-16T09:59:10.656Z,27.16
2022-08-16T09:59:38.302Z,27.18
2022-08-16T10:00:49.638Z,27.37
2022-08-16T10:01:29.650Z,27.42
2022-08-16T10:02:32.037Z,27.42
2022-08-16T10:03:32.782Z,27.42
2022-08-16T10:04:55.407Z,27.72
2022-08-16T10:05:30.289Z,27.94
2022-08-16T10:06:35.818Z,28.06
2022-08-16T10:07:38.229Z,27.96
2022-08-16T10:08:32.099Z,27.98
2022-08-16T10:09:57.795Z,28.02
2022-08-16T10:10:35.691Z,28.01
2022-08-16T10:11:30.957Z,28.16
2022-08-16T10:12:33.433Z,28.18
2022-08-16T10:13:34.147Z,28.12
2022-08-16T10:14:37.972Z,28.06
2022-08-16T10:15:35.070Z,27.99
2022-08-16T10:16:32.612Z,27.9
2022-08-16T10:17:31.296Z,27.79
2022-08-16T10:19:10.918Z,27.75
2022-08-16T10:19:34.262Z,27.69
2022-08-16T10:20:31.321Z,27.75
2022-08-16T10:21:34.656Z,27.72
2022-08-16T10:22:31.503Z,27.71
2022-08-16T10:23:33.480Z,27.66
2022-08-16T10:24:34.198Z,27.69
2022-08-16T10:27:50.622Z,27.87
2022-08-16T10:28:46.769Z,27.87
2022-08-16T10:30:28.462Z,27.89
2022-08-16T10:30:47.099Z,27.98
2022-08-16T10:31:55.851Z,27.99
2022-08-16T10:32:46.129Z,27.83
2022-08-16T10:33:48.567Z,27.84
2022-08-16T10:34:53.532Z,27.93
2022-08-16T10:35:55.992Z,28.03
2022-08-16T10:36:56.206Z,28.02
2022-08-16T10:37:48.137Z,28.05
2022-08-16T10:38:46.771Z,27.93
2022-08-16T10:39:48.670Z,27.86
2022-08-16T10:40:50.493Z,27.9
2022-08-16T10:41:49.988Z,28.05
2022-08-16T10:42:48.443Z,28.06
2022-08-16T10:43:46.563Z,28.18
2022-08-16T10:44:56.130Z,28.21
2022-08-16T10:46:03.046Z,28.06
2022-08-16T10:46:51.796Z,27.96
2022-08-16T10:48:03.091Z,27.89
2022-08-16T10:48:54.044Z,27.94
2022-08-16T10:49:50.091Z,28.02
2022-08-16T10:50:50.334Z,28.09
2022-08-16T10:52:20.776Z,28.06
2022-08-16T10:53:04.868Z,27.99
2022-08-16T10:53:53.040Z,27.9
2022-08-16T10:56:01.249Z,27.99
2022-08-16T10:57:03.957Z,27.99
2022-08-16T10:58:13.546Z,28.01
2022-08-16T10:59:58.375Z,27.87
2022-08-16T11:00:24.149Z,27.8
2022-08-16T11:02:21.648Z,27.49
2022-08-16T11:03:48.228Z,27.13
2022-08-16T11:05:11.588Z,26.99
2022-08-16T11:05:24.095Z,26.91
2022-08-16T11:06:30.154Z,27.11
2022-08-16T11:07:55.541Z,27.34
2022-08-16T11:08:40.862Z,27.53
2022-08-16T11:09:45.974Z,27.71
2022-08-16T11:11:18.489Z,27.87
2022-08-16T11:11:30.557Z,27.9
2022-08-16T11:12:33.718Z,28.02
2022-08-16T11:14:06.302Z,28.18
2022-08-16T11:14:31.913Z,28.2
2022-08-16T11:15:31.606Z,28.35
2022-08-16T11:17:02.053Z,28.42
2022-08-16T11:17:34.943Z,28.63
2022-08-16T11:19:15.701Z,28.67
2022-08-16T11:20:49.044Z,28.45
2022-08-16T11:20:58.775Z,28.48
2022-08-16T11:22:49.995Z,28.16
2022-08-16T11:23:02.947Z,28.2
2022-08-16T11:24:03.085Z,28.24
2022-08-16T11:26:23.532Z,28.05
2022-08-16T11:26:35.124Z,27.89
2022-08-16T11:27:49.984Z,27.71
2022-08-16T11:29:17.617Z,27.41
2022-08-16T11:29:35.134Z,27.33
2022-08-16T11:30:43.849Z,27.24
2022-08-16T11:31:37.599Z,27.37
2022-08-16T11:32:37.944Z,27.46
2022-08-16T11:34:04.686Z,27.72
2022-08-16T11:35:17.219Z,27.89
2022-08-16T11:36:32.808Z,28.03
2022-08-16T11:38:51.705Z,28.41
2022-08-16T11:39:16.421Z,28.49
2022-08-16T11:40:11.803Z,28.61
2022-08-16T11:41:09.283Z,28.68
2022-08-16T11:42:37.532Z,28.72
2022-08-16T11:43:12.076Z,28.64
2022-08-16T11:44:08.855Z,28.58
2022-08-16T11:45:09.481Z,28.46
2022-08-16T11:46:49.244Z,28.45
2022-08-16T11:47:08.350Z,28.48
2022-08-16T11:48:08.883Z,28.64
2022-08-16T11:49:15.118Z,28.64
2022-08-16T11:50:08.622Z,28.68
2022-08-16T11:51:09.287Z,28.88
2022-08-16T11:52:10.146Z,28.88
2022-08-16T11:53:10.659Z,28.8
2022-08-16T11:54:27.324Z,28.68
2022-08-16T11:55:12.712Z,28.7
2022-08-16T11:56:11.568Z,28.54
2022-08-16T11:57:13.978Z,28.48
2022-08-16T11:58:10.971Z,28.38
2022-08-16T11:59:09.326Z,28.36
2022-08-16T12:00:50.932Z,28.27
2022-08-16T12:01:12.731Z,28.23
2022-08-16T12:02:37.979Z,28.21
2022-08-16T12:03:12.915Z,28.12
2022-08-16T12:04:09.496Z,28.26
2022-08-16T12:05:10.320Z,28.21
2022-08-16T12:06:24.740Z,28.17
2022-08-16T12:07:10.985Z,28.23
2022-08-16T12:08:10.684Z,28.18
2022-08-16T12:09:12.459Z,28.08
2022-08-16T12:10:10.048Z,28.02
2022-08-16T12:11:09.283Z,28.05
2022-08-16T12:12:10.842Z,27.9
2022-08-16T12:13:12.697Z,27.84
2022-08-16T12:14:09.658Z,27.8
2022-08-16T12:15:09.354Z,27.86
2022-08-16T12:16:11.307Z,27.68
2022-08-16T12:17:10.923Z,27.62
2022-08-16T12:18:11.570Z,27.42
2022-08-16T12:19:13.720Z,27.41
2022-08-16T12:20:21.148Z,27.27
2022-08-16T12:21:11.938Z,27.28
2022-08-16T12:22:23.379Z,27.3
2022-08-16T12:23:09.918Z,27.37
2022-08-16T12:24:09.639Z,27.43
2022-08-16T12:25:09.384Z,27.41
2022-08-16T12:26:15.337Z,27.49
2022-08-16T12:27:13.953Z,27.55
2022-08-16T12:28:11.070Z,27.68
2022-08-16T12:29:10.056Z,27.91
2022-08-16T12:30:26.907Z,28.18
2022-08-16T12:31:09.582Z,28.36
2022-08-16T12:32:44.323Z,28.55
2022-08-16T12:33:10.998Z,28.6
2022-08-16T12:34:09.957Z,28.51
2022-08-16T12:35:10.162Z,28.41
2022-08-16T12:36:15.601Z,28.48
2022-08-16T12:37:16.111Z,28.58
2022-08-16T12:38:50.778Z,28.68
2022-08-16T12:39:12.531Z,28.76
2022-08-16T12:40:29.240Z,28.94
2022-08-16T12:41:12.417Z,28.94
2022-08-16T12:42:09.426Z,28.95
2022-08-16T12:43:11.510Z,28.98
2022-08-16T12:44:09.786Z,28.95
2022-08-16T12:45:09.194Z,28.85
2022-08-16T12:46:13.178Z,28.72
2022-08-16T12:47:09.765Z,28.53
2022-08-16T12:48:37.352Z,28.51
2022-08-16T12:49:10.199Z,28.43
2022-08-16T12:50:14.810Z,28.35
2022-08-16T12:51:24.553Z,28.35
2022-08-16T12:52:11.272Z,28.42
2022-08-16T12:53:11.758Z,28.28
2022-08-16T12:54:09.232Z,28.3
2022-08-16T12:55:16.768Z,28.2
2022-08-16T12:56:12.274Z,28.24
2022-08-16T12:57:19.292Z,28.14
2022-08-16T12:58:52.381Z,28.01
2022-08-16T12:59:09.738Z,28.12
2022-08-16T13:00:09.478Z,27.96
2022-08-16T13:01:11.858Z,28.02
2022-08-16T13:02:22.978Z,27.98
2022-08-16T13:03:12.521Z,28.06
2022-08-16T13:04:27.244Z,28.05
2022-08-16T13:05:14.448Z,27.94
2022-08-16T13:06:10.172Z,27.94
2022-08-16T13:07:17.707Z,28.01
2022-08-16T13:08:22.433Z,27.98
2022-08-16T13:09:09.761Z,28.02
2022-08-16T13:10:41.518Z,28.11
2022-08-16T13:11:12.453Z,28.09
2022-08-16T13:12:09.631Z,28.17
2022-08-16T13:13:11.419Z,28.2
2022-08-16T13:14:31.081Z,28.28
2022-08-16T13:15:15.123Z,28.27
2022-08-16T13:16:27.461Z,28.28
2022-08-16T13:17:18.989Z,28.31
2022-08-16T13:18:37.967Z,28.35
2022-08-16T13:19:11.810Z,28.26
2022-08-16T13:20:14.326Z,28.18
2022-08-16T13:21:10.538Z,28.28
2022-08-16T13:22:18.758Z,28.2
2022-08-16T13:23:11.567Z,28.17
2022-08-16T13:24:10.603Z,28.09
2022-08-16T13:25:12.262Z,28.17
2022-08-16T13:26:10.377Z,28.06
2022-08-16T13:27:10.504Z,28.11
2022-08-16T13:28:09.560Z,28.01
2022-08-16T13:29:10.307Z,27.96
2022-08-16T13:30:44.715Z,27.86
2022-08-16T13:31:12.299Z,27.86
2022-08-16T13:32:10.531Z,27.75
2022-08-16T13:33:24.696Z,27.74
2022-08-16T13:34:20.764Z,27.59
2022-08-16T13:35:14.212Z,27.59
2022-08-16T13:36:38.658Z,27.62
2022-08-16T13:37:10.570Z,27.43
2022-08-16T13:38:11.096Z,27.45
2022-08-16T13:39:09.591Z,27.37
2022-08-16T13:40:19.887Z,27.27
2022-08-16T13:41:12.870Z,27.26
2022-08-16T13:42:10.981Z,27.3
2022-08-16T13:43:13.831Z,27.28
2022-08-16T13:44:18.036Z,27.33
2022-08-16T13:45:17.810Z,27.21
2022-08-16T13:46:09.701Z,27.23
2022-08-16T13:47:09.611Z,27.19
2022-08-16T13:48:10.315Z,27.27
2022-08-16T13:49:10.026Z,27.36
2022-08-16T13:50:13.362Z,27.41
2022-08-16T13:51:09.623Z,27.36
2022-08-16T13:52:10.948Z,27.43
2022-08-16T13:53:10.269Z,27.45
2022-08-16T13:54:09.547Z,27.51
2022-08-16T13:55:21.931Z,27.53
2022-08-16T13:56:22.123Z,27.51
2022-08-16T13:57:14.160Z,27.55
2022-08-16T13:58:57.386Z,27.69
2022-08-16T13:59:24.804Z,27.71
2022-08-16T14:00:11.067Z,27.76
2022-08-16T14:01:14.691Z,27.8
2022-08-16T14:02:13.575Z,27.71
2022-08-16T14:03:13.336Z,27.8
2022-08-16T14:04:23.411Z,27.86
2022-08-16T14:05:13.128Z,27.84
2022-08-16T14:06:18.544Z,27.84
2022-08-16T14:07:12.525Z,27.87
2022-08-16T14:08:12.702Z,28.01
2022-08-16T14:09:11.984Z,27.98
2022-08-16T14:10:11.355Z,28.02
2022-08-16T14:11:16.900Z,28.05
2022-08-16T14:12:23.035Z,28.11
2022-08-16T14:13:23.550Z,28.2
2022-08-16T14:14:17.894Z,28.21
2022-08-16T14:15:10.851Z,28.36
2022-08-16T14:16:33.496Z,28.51
2022-08-16T14:17:14.375Z,28.57
2022-08-16T14:18:32.958Z,28.65
2022-08-16T14:19:11.366Z,28.63
2022-08-16T14:20:23.967Z,28.57
2022-08-16T14:21:14.123Z,28.55
2022-08-16T14:22:34.877Z,28.64
2022-08-16T14:23:11.297Z,28.78
2022-08-16T14:24:32.415Z,28.68
2022-08-16T14:25:18.822Z,28.76
2022-08-16T14:26:12.703Z,28.79
2022-08-16T14:27:11.687Z,28.75
2022-08-16T14:28:15.174Z,28.79
2022-08-16T14:29:11.449Z,28.72
2022-08-16T14:30:11.311Z,28.7
2022-08-16T14:31:12.519Z,28.45
2022-08-16T14:32:27.138Z,28.39
2022-08-16T14:33:11.941Z,28.18
2022-08-16T14:34:19.323Z,28.16
2022-08-16T14:35:12.089Z,28.11
2022-08-16T14:36:11.481Z,28.02
2022-08-16T14:37:12.454Z,27.98
2022-08-16T14:38:11.464Z,27.99
2022-08-16T14:39:12.199Z,27.99
2022-08-16T14:40:12.265Z,28.01
2022-08-16T14:41:14.767Z,28.02
2022-08-16T14:42:15.567Z,27.96
2022-08-16T14:43:17.848Z,28.01
2022-08-16T14:44:11.793Z,27.96
2022-08-16T14:45:11.200Z,28.08
2022-08-16T14:46:12.217Z,28.05
2022-08-16T14:47:11.847Z,27.94
2022-08-16T14:48:12.749Z,28.01
2022-08-16T14:49:14.263Z,27.93
2022-08-16T14:50:15.449Z,27.9
2022-08-16T14:51:12.894Z,27.76
2022-08-16T14:52:13.187Z,27.84
2022-08-16T14:53:12.574Z,27.81
2022-08-16T14:54:17.618Z,27.79
2022-08-16T14:55:14.122Z,27.72
2022-08-16T14:56:46.979Z,27.79
2022-08-16T14:57:12.372Z,27.8
2022-08-16T14:58:39.017Z,27.96
2022-08-16T14:59:13.622Z,28.09
2022-08-16T15:00:13.669Z,28.18
2022-08-16T15:01:15.393Z,28.26
2022-08-16T15:02:34.181Z,28.39
2022-08-16T15:03:14.481Z,28.48
2022-08-16T15:04:39.920Z,28.67
2022-08-16T15:05:14.400Z,28.76
2022-08-16T15:06:18.990Z,28.82
2022-08-16T15:07:16.710Z,28.91
2022-08-16T15:08:12.529Z,28.91
2022-08-16T15:09:11.834Z,28.86
2022-08-16T15:10:29.317Z,28.85
2022-08-16T15:11:12.860Z,28.79
2022-08-16T15:12:36.414Z,28.61
2022-08-16T15:13:14.902Z,28.54
2022-08-16T15:14:16.472Z,28.36
2022-08-16T15:15:18.960Z,28.27
2022-08-16T15:16:12.436Z,28.02
2022-08-16T15:17:14.939Z,27.91
2022-08-16T15:18:27.867Z,27.79
2022-08-16T15:19:12.360Z,27.62
2022-08-16T15:20:13.889Z,27.48
2022-08-16T15:21:13.307Z,27.41
2022-08-16T15:22:16.735Z,27.26
2022-08-16T15:23:12.326Z,27.26
2022-08-16T15:24:24.978Z,27.09
2022-08-16T15:25:12.491Z,27.08
2022-08-16T15:26:29.788Z,26.99
2022-08-16T15:27:15.687Z,26.94
2022-08-16T15:28:34.522Z,26.86
2022-08-16T15:29:15.252Z,26.87
2022-08-16T15:31:06.521Z,26.69
2022-08-16T15:31:19.595Z,26.81
2022-08-16T15:32:31.696Z,26.71
2022-08-16T15:33:19.919Z,26.67
2022-08-16T15:34:31.372Z,26.63
2022-08-16T15:35:22.723Z,26.56
2022-08-16T15:36:19.896Z,26.67
2022-08-16T15:37:19.858Z,26.79
2022-08-16T15:39:35.737Z,27
2022-08-16T15:40:03.004Z,27.16
2022-08-16T15:41:03.828Z,27.26
2022-08-16T15:42:03.357Z,27.37
2022-08-16T15:43:03.259Z,27.37
2022-08-16T15:44:14.962Z,27.45
2022-08-16T15:45:03.546Z,27.42
2022-08-16T15:46:06.223Z,27.41
2022-08-16T15:47:07.207Z,27.37
2022-08-16T15:48:07.827Z,27.31
2022-08-16T15:49:05.567Z,27.24
2022-08-16T15:50:02.615Z,27.26
2022-08-16T15:51:03.026Z,27.24
2022-08-16T15:52:05.429Z,27.31
2022-08-16T15:53:03.925Z,27.26
2022-08-16T15:54:35.672Z,27.26
2022-08-16T15:55:37.647Z,27.23
2022-08-16T15:56:10.112Z,27.18
2022-08-16T15:57:16.971Z,27.16
2022-08-16T15:58:40.796Z,27.08
2022-08-16T15:59:05.812Z,27.15
2022-08-16T16:00:17.572Z,27.18
2022-08-16T16:01:06.991Z,27.24
2022-08-16T16:02:06.096Z,27.26
2022-08-16T16:03:10.678Z,27.19
2022-08-16T16:04:10.441Z,27.26
2022-08-16T16:05:06.752Z,27.31
2022-08-16T16:06:07.007Z,27.34
2022-08-16T16:07:06.652Z,27.28
2022-08-16T16:08:26.792Z,27.33
2022-08-16T16:09:09.452Z,27.31
2022-08-16T16:10:05.989Z,27.42
2022-08-16T16:11:08.270Z,27.48
2022-08-16T16:12:43.962Z,27.49
2022-08-16T16:13:08.752Z,27.43
2022-08-16T16:14:14.833Z,27.45
2022-08-16T16:15:09.627Z,27.41
2022-08-16T16:16:16.740Z,27.45
2022-08-16T16:17:07.870Z,27.33
2022-08-16T16:18:14.854Z,27.31
2022-08-16T16:19:09.770Z,27.42
2022-08-16T16:20:08.177Z,27.36
2022-08-16T16:21:06.214Z,27.28
2022-08-16T16:22:06.299Z,27.27
2022-08-16T16:23:06.282Z,27.28
2022-08-16T16:24:33.820Z,27.26
2022-08-16T16:25:06.508Z,27.28
2022-08-16T16:26:10.724Z,27.38
2022-08-16T16:27:06.319Z,27.31
2022-08-16T16:28:46.282Z,27.28
2022-08-16T16:29:23.873Z,27.3
2022-08-16T16:30:51.736Z,27.16
2022-08-16T16:31:23.577Z,27.11
2022-08-16T16:32:38.835Z,27.09
2022-08-16T16:33:25.837Z,27.19
2022-08-16T16:34:35.548Z,27.15
2022-08-16T16:35:33.092Z,27.06
2022-08-16T16:36:29.544Z,27
2022-08-16T16:37:23.533Z,26.96
2022-08-16T16:38:24.000Z,26.93
2022-08-16T16:39:23.584Z,26.89
2022-08-16T16:40:37.305Z,26.79
2022-08-16T16:41:26.505Z,26.78
2022-08-16T16:42:34.582Z,26.72
2022-08-16T16:43:35.316Z,26.72
2022-08-16T16:44:39.760Z,26.54
2022-08-16T16:45:23.288Z,26.6
2022-08-16T16:46:58.980Z,26.53
2022-08-16T16:47:23.549Z,26.53
2022-08-16T16:48:23.294Z,26.42
2022-08-16T16:49:23.945Z,26.37
2022-08-16T16:50:23.301Z,26.38
2022-08-16T16:51:23.300Z,26.31
2022-08-16T16:52:49.808Z,26.19
2022-08-16T16:53:37.479Z,26.16
2022-08-16T16:54:32.502Z,26.07
2022-08-16T16:55:27.487Z,26.22
2022-08-16T16:56:37.501Z,26.01
2022-08-16T16:57:23.316Z,26.11
2022-08-16T16:58:43.282Z,26.06
2022-08-16T16:59:25.457Z,25.96
2022-08-16T17:00:40.499Z,25.91
2022-08-16T17:01:35.351Z,25.88